KOA185 YSSY-YMML
Flight info
| Callsign | KOA185 |
|---|---|
| Flight time | 1h 4m |
| Altitude | 38000 |
| Route | GROOK1/16R WOL DCT CB DCT BOYSE BOYS9V |
| Aircraft | A20N/M-SDE2E3FGHIJ1RWXY/LB1 |
Departure
| Time | 2026-04-24 13:24 |
|---|---|
| Airport | Sydney Kingsford Smith International Airport (YSSY) |
Arrival
| Time | 2026-04-24 14:28 |
|---|---|
| Airport | Melbourne Airport (YMML) |
| Time | Latitude | Longitude | Altitude | Speed | Heading |
|---|---|---|---|---|---|
| 2026-04-24 13:07 | -33.93588 | 151.18193 | 30 ft | 0 kts | 289° |
| 2026-04-24 13:14 | -33.93590 | 151.18201 | 30 ft | 2 kts | 286° |
| 2026-04-24 13:14 | -33.93591 | 151.18220 | 30 ft | 2 kts | 197° |
| 2026-04-24 13:14 | -33.93583 | 151.18222 | 30 ft | 0 kts | 191° |
| 2026-04-24 13:19 | -33.93615 | 151.18215 | 30 ft | 10 kts | 189° |
| 2026-04-24 13:19 | -33.93720 | 151.18194 | 30 ft | 21 kts | 201° |
| 2026-04-24 13:19 | -33.93778 | 151.18039 | 30 ft | 21 kts | 235° |
| 2026-04-24 13:19 | -33.93825 | 151.17852 | 28 ft | 26 kts | 252° |
| 2026-04-24 13:20 | -33.93788 | 151.17658 | 18 ft | 21 kts | 340° |
| 2026-04-24 13:20 | -33.93673 | 151.17642 | 27 ft | 14 kts | 348° |
| 2026-04-24 13:20 | -33.93580 | 151.17614 | 28 ft | 16 kts | 341° |
| 2026-04-24 13:20 | -33.93463 | 151.17588 | 28 ft | 18 kts | 6° |
| 2026-04-24 13:21 | -33.93339 | 151.17583 | 30 ft | 19 kts | 350° |
| 2026-04-24 13:21 | -33.93201 | 151.17550 | 30 ft | 21 kts | 344° |
| 2026-04-24 13:21 | -33.93049 | 151.17529 | 30 ft | 23 kts | 355° |
| 2026-04-24 13:21 | -33.92921 | 151.17476 | 30 ft | 10 kts | 298° |
| 2026-04-24 13:22 | -33.92920 | 151.17472 | 29 ft | 0 kts | 290° |
| 2026-04-24 13:22 | -33.92911 | 151.17442 | 27 ft | 11 kts | 289° |
| 2026-04-24 13:23 | -33.92888 | 151.17294 | 21 ft | 23 kts | 263° |
| 2026-04-24 13:23 | -33.93019 | 151.17182 | 19 ft | 28 kts | 173° |
| 2026-04-24 13:23 | -33.93051 | 151.17189 | 19 ft | 0 kts | 168° |
| 2026-04-24 13:23 | -33.93116 | 151.17205 | 22 ft | 44 kts | 167° |
| 2026-04-24 13:24 | -33.93740 | 151.17368 | 15 ft | 134 kts | 168° |
| 2026-04-24 13:24 | -33.94809 | 151.17620 | 421 ft | 167 kts | 174° |
| 2026-04-24 13:24 | -33.95961 | 151.17661 | 1301 ft | 161 kts | 180° |
| 2026-04-24 13:24 | -33.97057 | 151.17628 | 2153 ft | 155 kts | 180° |
| 2026-04-24 13:25 | -33.98187 | 151.17588 | 2791 ft | 172 kts | 180° |
| 2026-04-24 13:25 | -33.99449 | 151.17555 | 3412 ft | 191 kts | 179° |
| 2026-04-24 13:25 | -34.00858 | 151.17528 | 3976 ft | 215 kts | 179° |
| 2026-04-24 13:25 | -34.02427 | 151.17548 | 4620 ft | 236 kts | 173° |
| 2026-04-24 13:26 | -34.04108 | 151.17949 | 5306 ft | 257 kts | 162° |
| 2026-04-24 13:26 | -34.05874 | 151.18493 | 6035 ft | 273 kts | 171° |
| 2026-04-24 13:26 | -34.07782 | 151.18332 | 7060 ft | 281 kts | 197° |
| 2026-04-24 13:26 | -34.09553 | 151.17297 | 8054 ft | 286 kts | 210° |
| 2026-04-24 13:27 | -34.11230 | 151.15972 | 9075 ft | 291 kts | 213° |
| 2026-04-24 13:27 | -34.12354 | 151.15016 | 9763 ft | 294 kts | 214° |
| 2026-04-24 13:27 | -34.14589 | 151.13099 | 10983 ft | 305 kts | 214° |
| 2026-04-24 13:27 | -34.16390 | 151.11583 | 11426 ft | 327 kts | 213° |
| 2026-04-24 13:28 | -34.18332 | 151.09974 | 11870 ft | 347 kts | 213° |
| 2026-04-24 13:28 | -34.20346 | 151.08317 | 12734 ft | 351 kts | 213° |
| 2026-04-24 13:28 | -34.21716 | 151.07192 | 13376 ft | 353 kts | 213° |
| 2026-04-24 13:28 | -34.23760 | 151.05515 | 14296 ft | 357 kts | 213° |
| 2026-04-24 13:29 | -34.26501 | 151.03266 | 15347 ft | 362 kts | 213° |
| 2026-04-24 13:29 | -34.27915 | 151.02105 | 15877 ft | 365 kts | 213° |
| 2026-04-24 13:29 | -34.30027 | 151.00370 | 16669 ft | 369 kts | 213° |
| 2026-04-24 13:29 | -34.32160 | 150.98618 | 17459 ft | 372 kts | 213° |
| 2026-04-24 13:30 | -34.34312 | 150.96847 | 18230 ft | 376 kts | 213° |
| 2026-04-24 13:30 | -34.36460 | 150.95078 | 18956 ft | 380 kts | 213° |
| 2026-04-24 13:30 | -34.38653 | 150.93271 | 19642 ft | 383 kts | 213° |
| 2026-04-24 13:30 | -34.40860 | 150.91450 | 20326 ft | 386 kts | 213° |
| 2026-04-24 13:31 | -34.43087 | 150.89609 | 21001 ft | 389 kts | 213° |
| 2026-04-24 13:31 | -34.45320 | 150.87763 | 21667 ft | 392 kts | 213° |
| 2026-04-24 13:31 | -34.47590 | 150.85885 | 22338 ft | 395 kts | 213° |
| 2026-04-24 13:31 | -34.49869 | 150.83998 | 22982 ft | 398 kts | 213° |
| 2026-04-24 13:32 | -34.52166 | 150.82097 | 23613 ft | 402 kts | 212° |
| 2026-04-24 13:32 | -34.54385 | 150.80004 | 24206 ft | 407 kts | 221° |
| 2026-04-24 13:32 | -34.56321 | 150.77469 | 24726 ft | 413 kts | 230° |
| 2026-04-24 13:32 | -34.57913 | 150.74548 | 25226 ft | 419 kts | 238° |
| 2026-04-24 13:33 | -34.59335 | 150.71445 | 25696 ft | 423 kts | 238° |
| 2026-04-24 13:33 | -34.60779 | 150.68318 | 26206 ft | 426 kts | 238° |
| 2026-04-24 13:33 | -34.62236 | 150.65171 | 26675 ft | 429 kts | 238° |
| 2026-04-24 13:33 | -34.63702 | 150.62003 | 27152 ft | 432 kts | 238° |
| 2026-04-24 13:34 | -34.65182 | 150.58801 | 27612 ft | 436 kts | 237° |
| 2026-04-24 13:34 | -34.66664 | 150.55588 | 28064 ft | 439 kts | 237° |
| 2026-04-24 13:34 | -34.68165 | 150.52331 | 28500 ft | 442 kts | 237° |
| 2026-04-24 13:34 | -34.69670 | 150.49063 | 28931 ft | 445 kts | 237° |
| 2026-04-24 13:35 | -34.71186 | 150.45767 | 29329 ft | 448 kts | 237° |
| 2026-04-24 13:35 | -34.72706 | 150.42459 | 29847 ft | 448 kts | 237° |
| 2026-04-24 13:35 | -34.74230 | 150.39138 | 30231 ft | 452 kts | 237° |
| 2026-04-24 13:35 | -34.75765 | 150.35792 | 30598 ft | 455 kts | 237° |
| 2026-04-24 13:36 | -34.77311 | 150.32421 | 30958 ft | 457 kts | 237° |
| 2026-04-24 13:36 | -34.78857 | 150.29046 | 31333 ft | 458 kts | 237° |
| 2026-04-24 13:36 | -34.80406 | 150.25657 | 31762 ft | 458 kts | 237° |
| 2026-04-24 13:36 | -34.81950 | 150.22271 | 32209 ft | 457 kts | 237° |
| 2026-04-24 13:37 | -34.83488 | 150.18897 | 32680 ft | 455 kts | 237° |
| 2026-04-24 13:37 | -34.85013 | 150.15550 | 33316 ft | 447 kts | 237° |
| 2026-04-24 13:37 | -34.86483 | 150.12311 | 34543 ft | 426 kts | 236° |
| 2026-04-24 13:37 | -34.87874 | 150.09237 | 35682 ft | 403 kts | 236° |
| 2026-04-24 13:38 | -34.89190 | 150.06330 | 36779 ft | 382 kts | 236° |
| 2026-04-24 13:38 | -34.90467 | 150.03521 | 37247 ft | 379 kts | 236° |
| 2026-04-24 13:38 | -34.93059 | 149.97846 | 37495 ft | 386 kts | 236° |
| 2026-04-24 13:39 | -34.94360 | 149.94987 | 37671 ft | 387 kts | 236° |
| 2026-04-24 13:39 | -34.95665 | 149.92111 | 37865 ft | 388 kts | 236° |
| 2026-04-24 13:39 | -34.96970 | 149.89227 | 38043 ft | 389 kts | 236° |
| 2026-04-24 13:39 | -34.98281 | 149.86328 | 38200 ft | 391 kts | 237° |
| 2026-04-24 13:40 | -34.99596 | 149.83418 | 38384 ft | 392 kts | 237° |
| 2026-04-24 13:40 | -35.00912 | 149.80501 | 38555 ft | 393 kts | 237° |
| 2026-04-24 13:40 | -35.02235 | 149.77570 | 38723 ft | 394 kts | 237° |
| 2026-04-24 13:40 | -35.03555 | 149.74638 | 38888 ft | 395 kts | 237° |
| 2026-04-24 13:41 | -35.04883 | 149.71689 | 39042 ft | 397 kts | 237° |
| 2026-04-24 13:41 | -35.06213 | 149.68732 | 39151 ft | 399 kts | 237° |
| 2026-04-24 13:41 | -35.07549 | 149.65759 | 39273 ft | 400 kts | 237° |
| 2026-04-24 13:41 | -35.08889 | 149.62777 | 39404 ft | 401 kts | 238° |
| 2026-04-24 13:42 | -35.10228 | 149.59792 | 39531 ft | 401 kts | 238° |
| 2026-04-24 13:42 | -35.11570 | 149.56800 | 39688 ft | 401 kts | 238° |
| 2026-04-24 13:42 | -35.12910 | 149.53809 | 39807 ft | 402 kts | 238° |
| 2026-04-24 13:42 | -35.14255 | 149.50801 | 39920 ft | 403 kts | 238° |
| 2026-04-24 13:43 | -35.15597 | 149.47798 | 40038 ft | 404 kts | 238° |
| 2026-04-24 13:43 | -35.16947 | 149.44776 | 40158 ft | 405 kts | 238° |
| 2026-04-24 13:43 | -35.19647 | 149.38722 | 40323 ft | 408 kts | 238° |
| 2026-04-24 13:44 | -35.21004 | 149.35674 | 40434 ft | 408 kts | 238° |
| 2026-04-24 13:44 | -35.22361 | 149.32625 | 40521 ft | 409 kts | 238° |
| 2026-04-24 13:44 | -35.25101 | 149.26462 | 40536 ft | 416 kts | 239° |
| 2026-04-24 13:45 | -35.27913 | 149.20201 | 40534 ft | 422 kts | 236° |
| 2026-04-24 13:45 | -35.31321 | 149.14321 | 40534 ft | 426 kts | 231° |
| 2026-04-24 13:46 | -35.34838 | 149.08471 | 40534 ft | 426 kts | 231° |
| 2026-04-24 13:46 | -35.38349 | 149.02624 | 40534 ft | 426 kts | 231° |
| 2026-04-24 13:47 | -35.41858 | 148.96774 | 40544 ft | 426 kts | 231° |
| 2026-04-24 13:47 | -35.45365 | 148.90917 | 40540 ft | 426 kts | 231° |
| 2026-04-24 13:48 | -35.48844 | 148.85094 | 40547 ft | 426 kts | 232° |
| 2026-04-24 13:48 | -35.52347 | 148.79222 | 40546 ft | 426 kts | 232° |
| 2026-04-24 13:49 | -35.55852 | 148.73337 | 40551 ft | 426 kts | 232° |
| 2026-04-24 13:49 | -35.59347 | 148.67458 | 40555 ft | 426 kts | 232° |
| 2026-04-24 13:50 | -35.62842 | 148.61569 | 40553 ft | 427 kts | 232° |
| 2026-04-24 13:50 | -35.66339 | 148.55669 | 40548 ft | 427 kts | 232° |
| 2026-04-24 13:51 | -35.69832 | 148.49763 | 40547 ft | 427 kts | 232° |
| 2026-04-24 13:51 | -35.73321 | 148.43855 | 40550 ft | 427 kts | 232° |
| 2026-04-24 13:52 | -35.76805 | 148.37944 | 40547 ft | 427 kts | 232° |
| 2026-04-24 13:52 | -35.80284 | 148.32032 | 40541 ft | 426 kts | 233° |
| 2026-04-24 13:53 | -35.83758 | 148.26119 | 40535 ft | 426 kts | 233° |
| 2026-04-24 13:53 | -35.87230 | 148.20200 | 40527 ft | 426 kts | 233° |
| 2026-04-24 13:54 | -35.90693 | 148.14285 | 40526 ft | 426 kts | 233° |
| 2026-04-24 13:54 | -35.94154 | 148.08365 | 40516 ft | 425 kts | 233° |
| 2026-04-24 13:55 | -35.97613 | 148.02435 | 40513 ft | 425 kts | 233° |
| 2026-04-24 13:55 | -36.01068 | 147.96504 | 40513 ft | 425 kts | 233° |
| 2026-04-24 13:56 | -36.04517 | 147.90572 | 40510 ft | 425 kts | 233° |
| 2026-04-24 13:56 | -36.07938 | 147.84679 | 40510 ft | 425 kts | 233° |
| 2026-04-24 13:57 | -36.11401 | 147.78703 | 40506 ft | 424 kts | 233° |
| 2026-04-24 13:57 | -36.14813 | 147.72805 | 40506 ft | 424 kts | 233° |
| 2026-04-24 13:58 | -36.18244 | 147.66864 | 40504 ft | 424 kts | 233° |
| 2026-04-24 13:58 | -36.21672 | 147.60919 | 40514 ft | 424 kts | 234° |
| 2026-04-24 13:59 | -36.25090 | 147.54978 | 40504 ft | 424 kts | 234° |
| 2026-04-24 13:59 | -36.28507 | 147.49029 | 40505 ft | 423 kts | 234° |
| 2026-04-24 14:00 | -36.31914 | 147.43089 | 40369 ft | 423 kts | 234° |
| 2026-04-24 14:00 | -36.33615 | 147.40120 | 40125 ft | 422 kts | 234° |
| 2026-04-24 14:00 | -36.35311 | 147.37158 | 39882 ft | 421 kts | 234° |
| 2026-04-24 14:01 | -36.37008 | 147.34190 | 39649 ft | 421 kts | 234° |
| 2026-04-24 14:01 | -36.38702 | 147.31224 | 39413 ft | 422 kts | 234° |
| 2026-04-24 14:01 | -36.40400 | 147.28249 | 39182 ft | 423 kts | 235° |
| 2026-04-24 14:01 | -36.42101 | 147.25265 | 38905 ft | 424 kts | 235° |
| 2026-04-24 14:02 | -36.43805 | 147.22274 | 38635 ft | 424 kts | 235° |
| 2026-04-24 14:02 | -36.45507 | 147.19283 | 38351 ft | 425 kts | 234° |
| 2026-04-24 14:02 | -36.47218 | 147.16274 | 38074 ft | 426 kts | 234° |
| 2026-04-24 14:02 | -36.48929 | 147.13265 | 37811 ft | 427 kts | 235° |
| 2026-04-24 14:03 | -36.50646 | 147.10240 | 37543 ft | 429 kts | 235° |
| 2026-04-24 14:03 | -36.52367 | 147.07206 | 37280 ft | 430 kts | 235° |
| 2026-04-24 14:03 | -36.54093 | 147.04161 | 37022 ft | 431 kts | 235° |
| 2026-04-24 14:03 | -36.55823 | 147.01106 | 36762 ft | 432 kts | 234° |
| 2026-04-24 14:04 | -36.57556 | 146.98043 | 36508 ft | 434 kts | 234° |
| 2026-04-24 14:04 | -36.59293 | 146.94969 | 36258 ft | 435 kts | 234° |
| 2026-04-24 14:04 | -36.61034 | 146.91886 | 36011 ft | 436 kts | 234° |
| 2026-04-24 14:04 | -36.62778 | 146.88794 | 35774 ft | 438 kts | 235° |
| 2026-04-24 14:05 | -36.64529 | 146.85686 | 35524 ft | 439 kts | 235° |
| 2026-04-24 14:05 | -36.66283 | 146.82573 | 35285 ft | 439 kts | 235° |
| 2026-04-24 14:05 | -36.68036 | 146.79457 | 35042 ft | 439 kts | 235° |
| 2026-04-24 14:05 | -36.69791 | 146.76336 | 34807 ft | 441 kts | 235° |
| 2026-04-24 14:06 | -36.71553 | 146.73197 | 34566 ft | 442 kts | 235° |
| 2026-04-24 14:06 | -36.73317 | 146.70053 | 34307 ft | 443 kts | 235° |
| 2026-04-24 14:06 | -36.75080 | 146.66908 | 34036 ft | 442 kts | 235° |
| 2026-04-24 14:06 | -36.76842 | 146.63763 | 33750 ft | 442 kts | 235° |
| 2026-04-24 14:07 | -36.78601 | 146.60619 | 33135 ft | 444 kts | 235° |
| 2026-04-24 14:07 | -36.80376 | 146.57442 | 32213 ft | 449 kts | 235° |
| 2026-04-24 14:07 | -36.82170 | 146.54227 | 31289 ft | 452 kts | 235° |
| 2026-04-24 14:07 | -36.83956 | 146.51025 | 30705 ft | 446 kts | 234° |
| 2026-04-24 14:08 | -36.85703 | 146.47889 | 30176 ft | 437 kts | 234° |
| 2026-04-24 14:08 | -36.87427 | 146.44793 | 29574 ft | 431 kts | 235° |
| 2026-04-24 14:08 | -36.89129 | 146.41737 | 28972 ft | 425 kts | 235° |
| 2026-04-24 14:08 | -36.90805 | 146.38723 | 28386 ft | 420 kts | 235° |
| 2026-04-24 14:09 | -36.92461 | 146.35741 | 27788 ft | 415 kts | 235° |
| 2026-04-24 14:09 | -36.94099 | 146.32790 | 27212 ft | 411 kts | 235° |
| 2026-04-24 14:09 | -36.95717 | 146.29869 | 26634 ft | 407 kts | 236° |
| 2026-04-24 14:09 | -36.97319 | 146.26978 | 26064 ft | 403 kts | 236° |
| 2026-04-24 14:10 | -36.98371 | 146.25078 | 25688 ft | 401 kts | 236° |
| 2026-04-24 14:10 | -37.00483 | 146.21259 | 24898 ft | 398 kts | 236° |
| 2026-04-24 14:10 | -37.02050 | 146.18425 | 24336 ft | 395 kts | 236° |
| 2026-04-24 14:10 | -37.03605 | 146.15607 | 23744 ft | 392 kts | 236° |
| 2026-04-24 14:11 | -37.05143 | 146.12821 | 23178 ft | 387 kts | 236° |
| 2026-04-24 14:11 | -37.06662 | 146.10065 | 22622 ft | 382 kts | 236° |
| 2026-04-24 14:11 | -37.09647 | 146.04643 | 21519 ft | 374 kts | 236° |
| 2026-04-24 14:12 | -37.11117 | 146.01969 | 20974 ft | 371 kts | 236° |
| 2026-04-24 14:12 | -37.12084 | 146.00209 | 20617 ft | 370 kts | 236° |
| 2026-04-24 14:12 | -37.13535 | 145.97568 | 20074 ft | 367 kts | 237° |
| 2026-04-24 14:12 | -37.14978 | 145.94938 | 19535 ft | 365 kts | 237° |
| 2026-04-24 14:13 | -37.16419 | 145.92311 | 18969 ft | 365 kts | 237° |
| 2026-04-24 14:13 | -37.17850 | 145.89699 | 18423 ft | 362 kts | 237° |
| 2026-04-24 14:13 | -37.19267 | 145.87110 | 17879 ft | 359 kts | 237° |
| 2026-04-24 14:13 | -37.20671 | 145.84541 | 17352 ft | 356 kts | 237° |
| 2026-04-24 14:14 | -37.22062 | 145.81996 | 16824 ft | 353 kts | 237° |
| 2026-04-24 14:14 | -37.23446 | 145.79462 | 16306 ft | 350 kts | 237° |
| 2026-04-24 14:14 | -37.26183 | 145.74450 | 15271 ft | 346 kts | 237° |
| 2026-04-24 14:15 | -37.27542 | 145.71965 | 14760 ft | 345 kts | 237° |
| 2026-04-24 14:15 | -37.28896 | 145.69480 | 14247 ft | 343 kts | 237° |
| 2026-04-24 14:15 | -37.30238 | 145.67014 | 13708 ft | 341 kts | 237° |
| 2026-04-24 14:15 | -37.31592 | 145.64586 | 13205 ft | 338 kts | 236° |
| 2026-04-24 14:16 | -37.32970 | 145.62210 | 12706 ft | 335 kts | 235° |
| 2026-04-24 14:16 | -37.34344 | 145.59863 | 12217 ft | 332 kts | 236° |
| 2026-04-24 14:16 | -37.35703 | 145.57536 | 11723 ft | 329 kts | 236° |
| 2026-04-24 14:17 | -37.38386 | 145.52910 | 10771 ft | 325 kts | 237° |
| 2026-04-24 14:17 | -37.39696 | 145.50645 | 10483 ft | 316 kts | 237° |
| 2026-04-24 14:17 | -37.42182 | 145.46336 | 10067 ft | 294 kts | 237° |
| 2026-04-24 14:18 | -37.43372 | 145.44267 | 9727 ft | 289 kts | 237° |
| 2026-04-24 14:18 | -37.44559 | 145.42244 | 9365 ft | 286 kts | 234° |
| 2026-04-24 14:18 | -37.45952 | 145.40458 | 9004 ft | 286 kts | 224° |
| 2026-04-24 14:18 | -37.47431 | 145.38850 | 8648 ft | 283 kts | 224° |
| 2026-04-24 14:19 | -37.48925 | 145.37212 | 8290 ft | 280 kts | 224° |
| 2026-04-24 14:19 | -37.50368 | 145.35621 | 7951 ft | 279 kts | 224° |
| 2026-04-24 14:19 | -37.51820 | 145.34015 | 7583 ft | 277 kts | 224° |
| 2026-04-24 14:19 | -37.53264 | 145.32416 | 7221 ft | 274 kts | 224° |
| 2026-04-24 14:20 | -37.54687 | 145.30841 | 6889 ft | 272 kts | 224° |
| 2026-04-24 14:20 | -37.56103 | 145.29273 | 6522 ft | 270 kts | 225° |
| 2026-04-24 14:20 | -37.57508 | 145.27715 | 6173 ft | 268 kts | 224° |
| 2026-04-24 14:20 | -37.58899 | 145.26173 | 5834 ft | 265 kts | 224° |
| 2026-04-24 14:21 | -37.60281 | 145.24645 | 5484 ft | 264 kts | 224° |
| 2026-04-24 14:21 | -37.61659 | 145.23131 | 5145 ft | 262 kts | 224° |
| 2026-04-24 14:21 | -37.63035 | 145.21625 | 4858 ft | 259 kts | 224° |
| 2026-04-24 14:21 | -37.64362 | 145.20175 | 4795 ft | 246 kts | 225° |
| 2026-04-24 14:22 | -37.65635 | 145.18784 | 4637 ft | 239 kts | 225° |
| 2026-04-24 14:22 | -37.66890 | 145.17402 | 4325 ft | 239 kts | 225° |
| 2026-04-24 14:22 | -37.69433 | 145.14598 | 3994 ft | 246 kts | 225° |
| 2026-04-24 14:23 | -37.70691 | 145.13220 | 3995 ft | 233 kts | 225° |
| 2026-04-24 14:23 | -37.71866 | 145.11896 | 3960 ft | 219 kts | 233° |
| 2026-04-24 14:23 | -37.72505 | 145.10279 | 3993 ft | 210 kts | 266° |
| 2026-04-24 14:23 | -37.72603 | 145.08400 | 3972 ft | 217 kts | 272° |
| 2026-04-24 14:24 | -37.72660 | 145.06507 | 3937 ft | 213 kts | 272° |
| 2026-04-24 14:24 | -37.72713 | 145.04674 | 3840 ft | 206 kts | 273° |
| 2026-04-24 14:24 | -37.72766 | 145.02877 | 3629 ft | 204 kts | 273° |
| 2026-04-24 14:24 | -37.72816 | 145.01082 | 3320 ft | 206 kts | 274° |
| 2026-04-24 14:25 | -37.72868 | 144.99265 | 3072 ft | 206 kts | 275° |
| 2026-04-24 14:25 | -37.72920 | 144.97489 | 2850 ft | 205 kts | 275° |
| 2026-04-24 14:25 | -37.72969 | 144.95654 | 2569 ft | 207 kts | 275° |
| 2026-04-24 14:25 | -37.73018 | 144.93825 | 2498 ft | 211 kts | 275° |
| 2026-04-24 14:26 | -37.73071 | 144.91978 | 2495 ft | 208 kts | 275° |
| 2026-04-24 14:26 | -37.73122 | 144.90146 | 2496 ft | 209 kts | 275° |
| 2026-04-24 14:26 | -37.73172 | 144.88325 | 2495 ft | 206 kts | 275° |
| 2026-04-24 14:26 | -37.73218 | 144.86490 | 2496 ft | 211 kts | 275° |
| 2026-04-24 14:27 | -37.73266 | 144.84658 | 2496 ft | 207 kts | 275° |
| 2026-04-24 14:27 | -37.72984 | 144.82945 | 2501 ft | 194 kts | 315° |
| 2026-04-24 14:27 | -37.71812 | 144.82525 | 2323 ft | 209 kts | 23° |
| 2026-04-24 14:27 | -37.70629 | 144.83597 | 1224 ft | 197 kts | 25° |
| 2026-04-24 14:28 | -37.69443 | 144.84073 | 669 ft | 168 kts | 355° |
| 2026-04-24 14:28 | -37.68347 | 144.84052 | 363 ft | 144 kts | 347° |
| 2026-04-24 14:28 | -37.67560 | 144.83899 | 364 ft | 72 kts | 352° |
| 2026-04-24 14:28 | -37.67249 | 144.83848 | 375 ft | 38 kts | 351° |
| 2026-04-24 14:29 | -37.67006 | 144.83839 | 381 ft | 33 kts | 12° |
| 2026-04-24 14:29 | -37.66798 | 144.83934 | 383 ft | 31 kts | 20° |
| 2026-04-24 14:29 | -37.66726 | 144.84098 | 379 ft | 22 kts | 102° |
| 2026-04-24 14:29 | -37.66807 | 144.84259 | 372 ft | 19 kts | 91° |
| 2026-04-24 14:30 | -37.66804 | 144.84321 | 370 ft | 0 kts | 103° |